Data for 04/06/2009

Time Sea-Level Adjusted Pressure Absolute Pressure Temperature Relative Humidity Dew Point   
(mb) (inHg) (mb) (inHg) (C) (F) (%) (C) (F)
00:05 1028 30.36 857 25.31 -1.8 28.7 61 -8.4 16.9
00:10 1028 30.36 857 25.31 -2 28.4 61 -8.5 16.8
00:15 1028 30.36 857 25.31 -2.1 28.2 62 -8.5 16.6
00:20 1028 30.36 857 25.31 -2.2 28 61 -8.7 16.3
00:25 1028 30.36 857 25.31 -2.2 28 61 -8.7 16.3
00:30 1028 30.36 857 25.31 -2.3 27.8 62 -8.7 16.4
00:35 1028 30.36 857 25.31 -2.3 27.8 60 -9 15.8
00:40 1028 30.36 857 25.31 -1.9 28.5 59 -9 15.9
00:45 1028 30.36 857 25.31 -1.9 28.5 59 -9 15.8
00:50 1028 30.36 857 25.31 -1.8 28.7 58 -8.9 15.9
00:55 1028 30.36 857 25.31 -1.8 28.7 59 -8.9 15.9
01:00 1028 30.36 857 25.31 -2.3 27.9 62 -8.6 16.5
01:05 1028 30.36 857 25.31 -2.7 27.2 63 -8.8 16.2
01:10 1028 30.36 857 25.31 -2.8 27 62 -9 15.8
01:15 1028 30.36 857 25.31 -2.7 27.1 62 -9 15.8
01:20 1028 30.36 857 25.31 -2.7 27.1 63 -8.8 16.2
01:25 1028 30.36 857 25.31 -2.7 27.1 64 -8.7 16.3
01:30 1028 30.36 857 25.31 -2.7 27.1 62 -8.9 15.9
01:35 1028 30.36 857 25.31 -2.6 27.2 62 -9 15.9
01:40 1028 30.36 857 25.31 -2.6 27.3 61 -9.1 15.7
01:45 1028 30.36 857 25.31 -2.7 27.1 63 -8.9 16
01:50 1028 30.36 857 25.31 -2.8 27 62 -9 15.8
01:55 1028 30.36 857 25.31 -2.8 26.9 63 -8.9 16
02:00 1028 30.36 857 25.31 -2.9 26.8 62 -9.1 15.6
02:05 1028 30.36 857 25.31 -2.9 26.8 63 -8.9 16
02:10 1028 30.36 857 25.31 -2.8 27 62 -9.2 15.5
02:15 1028 30.36 857 25.31 -2.5 27.5 60 -9.1 15.6
02:20 1028 30.36 857 25.31 -2.1 28.3 58 -9.2 15.5
02:25 1028 30.36 857 25.31 -2 28.4 58 -9.2 15.5
02:30 1028 30.36 857 25.31 -1.9 28.5 58 -9.1 15.7
02:35 1028 30.36 857 25.31 -2.3 27.8 61 -8.8 16.2
02:40 1028 30.36 857 25.31 -2.9 26.8 63 -9.1 15.7
02:45 1028 30.36 857 25.31 -3.2 26.3 64 -9.1 15.6
02:50 1028 30.36 857 25.31 -3.3 26 63 -9.3 15.3
02:55 1028 30.36 857 25.31 -3.2 26.2 64 -9.1 15.6
03:00 1028 30.36 857 25.31 -3.1 26.3 64 -9 15.7
03:05 1028 30.36 857 25.31 -3.2 26.2 64 -9.1 15.7
03:10 1028 30.36 857 25.31 -3.2 26.3 63 -9.3 15.2
03:15 1028 30.36 857 25.31 -2.8 26.9 62 -9.2 15.4
03:20 1028 30.36 857 25.31 -2.5 27.5 61 -9 15.7
03:25 1028 30.36 857 25.31 -2.5 27.4 61 -9.1 15.6
03:30 1028 30.36 857 25.31 -2 28.4 57 -9.5 14.9
03:35 1028 30.36 857 25.31 -1.8 28.7 59 -8.9 15.9
03:40 1028 30.36 857 25.31 -2.5 27.5 61 -9 15.7
03:45 1028 30.36 857 25.31 -2.9 26.9 62 -9.2 15.5
03:50 1028 30.36 857 25.31 -2.8 26.9 61 -9.3 15.3
03:55 1028 30.36 857 25.31 -2.8 27 61 -9.3 15.3
04:00 1028 30.36 857 25.31 -2.8 26.9 61 -9.3 15.3
04:05 1028 30.36 857 25.31 -2.9 26.8 61 -9.5 15
04:10 1028 30.36 857 25.31 -2.8 27 60 -9.4 15
04:15 1028 30.36 857 25.31 -2.5 27.5 60 -9.3 15.2
04:20 1028 30.36 857 25.31 -2.5 27.5 60 -9.2 15.4
04:25 1028 30.36 857 25.31 -2.4 27.7 59 -9.3 15.3
04:30 1028 30.36 857 25.31 -2.4 27.6 61 -9 15.7
04:35 1028 30.36 857 25.31 -3.3 26.1 63 -9.3 15.3
04:40 1028 30.36 857 25.31 -3.6 25.5 65 -9.4 15.2
04:45 1028 30.36 857 25.31 -3.7 25.3 65 -9.4 15.1
04:50 1028 30.36 857 25.31 -3.9 24.9 66 -9.3 15.2
04:55 1028 30.36 857 25.31 -3.6 25.5 65 -9.3 15.3
05:00 1028 30.36 857 25.31 -3.4 25.8 64 -9.4 15.2
05:05 1028 30.36 857 25.31 -3.2 26.2 64 -9.2 15.4
05:10 1028 30.36 857 25.31 -3.3 26.1 64 -9.2 15.4
05:15 1028 30.36 857 25.31 -3.4 26 64 -9.3 15.3
05:20 1028 30.36 857 25.31 -3.5 25.6 64 -9.5 15
05:25 1027 30.33 857 25.31 -3.4 25.9 64 -9.4 15.2
05:30 1027 30.33 857 25.31 -3.4 25.8 64 -9.4 15.1
05:35 1027 30.33 857 25.31 -3.4 25.9 64 -9.3 15.2
05:40 1027 30.33 857 25.31 -3.5 25.8 64 -9.3 15.2
05:45 1027 30.33 857 25.31 -3.4 25.8 63 -9.4 15
05:50 1027 30.33 857 25.31 -3.5 25.8 64 -9.3 15.2
05:55 1027 30.33 857 25.31 -3.8 25.2 64 -9.5 14.9
06:00 1027 30.33 857 25.31 -3.8 25.1 65 -9.5 14.8
06:05 1027 30.33 857 25.31 -3.5 25.6 63 -9.6 14.8
06:10 1027 30.33 857 25.31 -3.4 25.9 65 -9.1 15.6
06:15 1027 30.33 857 25.31 -3.6 25.6 65 -9.2 15.4
06:20 1027 30.33 857 25.31 -3.7 25.3 64 -9.5 14.9
06:25 1027 30.33 857 25.31 -3.9 25 66 -9.3 15.2
06:30 1027 30.33 857 25.31 -4.1 24.6 66 -9.5 14.9
06:35 1027 30.33 857 25.31 -4.1 24.6 66 -9.6 14.8
06:40 1027 30.33 857 25.31 -4 24.8 66 -9.5 15
06:45 1027 30.33 857 25.31 -4.2 24.5 66 -9.7 14.6
06:50 1027 30.33 857 25.31 -4.2 24.5 66 -9.6 14.8
06:55 1027 30.33 857 25.31 -4.3 24.3 66 -9.8 14.4
07:00 1027 30.33 857 25.31 -4.4 24.1 66 -9.7 14.5
07:05 1027 30.33 857 25.31 -4.4 24 67 -9.6 14.7
07:10 1027 30.33 857 25.31 -4.6 23.7 68 -9.7 14.5
07:15 1027 30.33 857 25.31 -4.1 24.7 64 -9.8 14.3
07:20 1027 30.33 857 25.31 -3.7 25.3 64 -9.5 14.8
07:25 1027 30.33 857 25.31 -3.6 25.5 63 -9.7 14.6
07:30 1027 30.33 857 25.31 -3.5 25.7 62 -9.7 14.5
07:35 1027 30.33 857 25.31 -3.8 25.1 63 -9.8 14.3
07:40 1027 30.33 857 25.31 -3.7 25.4 62 -9.9 14.1
07:45 1027 30.33 857 25.31 -3.3 26.1 61 -9.9 14.2
07:50 1027 30.33 857 25.31 -3.1 26.4 61 -9.6 14.8
07:55 1027 30.33 857 25.31 -3.2 26.2 62 -9.6 14.7
08:00 1027 30.33 857 25.31 -3.2 26.3 60 -9.8 14.3
08:05 1027 30.33 857 25.31 -3.1 26.5 60 -9.7 14.6
08:10 1027 30.33 857 25.31 -2.9 26.8 59 -9.8 14.4
08:15 1027 30.33 857 25.31 -2.7 27.1 60 -9.5 14.9
08:20 1027 30.33 857 25.31 -2.7 27.1 59 -9.7 14.6
08:25 1027 30.33 857 25.31 -2.5 27.5 58 -9.8 14.4
08:30 1027 30.33 857 25.31 -2 28.4 56 -9.6 14.8
08:35 1027 30.33 857 25.31 -1.5 29.3 54 -9.6 14.7
08:40 1027 30.33 856 25.28 -1.7 28.9 56 -9.4 15
08:45 1027 30.33 856 25.28 -1.5 29.2 54 -9.6 14.7
08:50 1027 30.33 856 25.28 -1.3 29.6 55 -9.3 15.3
08:55 1027 30.33 856 25.28 -0.8 30.6 54 -8.9 16
09:00 1027 30.33 856 25.28 -0.3 31.4 51 -9.2 15.4
09:05 1027 30.33 856 25.28 -0.3 31.5 51 -9.1 15.6
09:10 1027 30.33 856 25.28 0.2 32.4 49 -9.3 15.3
09:15 1027 30.33 856 25.28 0.4 32.8 49 -9.1 15.7
09:20 1027 30.33 856 25.28 0.3 32.6 46 -9.9 14.2
09:25 1027 30.33 856 25.28 0.6 33.1 47 -9.5 14.9
09:30 1027 30.33 856 25.28 1.2 34.1 44 -9.8 14.4
09:35 1027 30.33 856 25.28 1.9 35.4 40 -10.2 13.6
09:40 1027 30.33 856 25.28 1.8 35.2 41 -10.2 13.6
09:45 1027 30.33 856 25.28 2.2 35.9 44 -8.9 16
09:50 1027 30.33 856 25.28 2.1 35.8 41 -9.8 14.3
09:55 1027 30.33 856 25.28 2.7 36.9 40 -9.7 14.6
10:00 1027 30.33 856 25.28 2.7 36.9 39 -9.9 14.2
10:05 1027 30.33 856 25.28 2.6 36.8 42 -9 15.8
10:10 1027 30.33 856 25.28 3.7 38.6 36 -10 14.1
10:15 1027 30.33 856 25.28 3.2 37.8 43 -8.2 17.2
10:20 1027 30.33 856 25.28 2.9 37.2 41 -9.2 15.4
10:25 1027 30.33 856 25.28 3.3 37.9 40 -9.1 15.6
10:30 1027 30.33 856 25.28 4 39.1 40 -8.5 16.8
10:35 1027 30.33 856 25.28 4.2 39.6 39 -8.6 16.4
10:40 1027 30.33 856 25.28 4.2 39.5 38 -8.9 16
10:45 1027 30.33 856 25.28 4.3 39.8 39 -8.5 16.7
10:50 1026 30.3 856 25.28 4.1 39.4 40 -8.4 16.9
10:55 1026 30.3 856 25.28 3.6 38.4 41 -8.4 16.8
11:00 1026 30.3 856 25.28 3.5 38.3 39 -9.2 15.4
11:05 1026 30.3 855 25.25 4 39.2 39 -8.6 16.5
11:10 1026 30.3 855 25.25 4 39.2 39 -8.7 16.3
11:15 1026 30.3 855 25.25 3.6 38.6 41 -8.5 16.7
11:20 1026 30.3 855 25.25 4.2 39.6 38 -8.9 15.9
11:25 1026 30.3 855 25.25 4.4 39.9 39 -8.4 16.8
11:30 1026 30.3 855 25.25 4.5 40.2 40 -8 17.7
11:35 1026 30.3 855 25.25 4.1 39.3 43 -7.4 18.6
11:40 1026 30.3 855 25.25 3.9 39 40 -8.4 16.9
11:45 1026 30.3 855 25.25 4.4 40 38 -8.5 16.6
11:50 1026 30.3 855 25.25 5 41.1 38 -8.3 17.1
11:55 1025 30.27 855 25.25 5.1 41.3 38 -7.9 17.8
12:00 1025 30.27 855 25.25 4.4 39.8 40 -8 17.6
12:05 1025 30.27 855 25.25 4.6 40.3 40 -7.8 17.9
12:10 1025 30.27 854 25.22 5 41.1 38 -8 17.6
12:15 1025 30.27 854 25.22 5.2 41.3 40 -7.5 18.6
12:20 1025 30.27 854 25.22 5.4 41.7 40 -7.3 18.9
12:25 1025 30.27 854 25.22 5.9 42.6 39 -7 19.4
12:30 1025 30.27 854 25.22 5.9 42.6 40 -6.6 20
12:35 1025 30.27 854 25.22 5.5 42 40 -6.9 19.7
12:40 1025 30.27 854 25.22 5.3 41.5 40 -7.2 19.1
12:45 1025 30.27 854 25.22 5.5 41.9 40 -7.2 19.1
12:50 1025 30.27 854 25.22 5.5 42 40 -7.1 19.2
12:55 1025 30.27 854 25.22 5.7 42.2 39 -7.1 19.3
13:00 1025 30.27 854 25.22 6.1 42.9 40 -6.7 20
13:05 1025 30.27 854 25.22 6.6 43.9 37 -6.9 19.5
13:10 1025 30.27 854 25.22 6.8 44.3 37 -6.8 19.7
13:15 1025 30.27 854 25.22 6.7 44.1 39 -6.3 20.7
13:20 1025 30.27 854 25.22 6.7 44 39 -6.3 20.7
13:25 1025 30.27 854 25.22 7 44.7 38 -6.2 20.9
13:30 1025 30.27 854 25.22 8 46.4 34 -6.8 19.7
13:35 1024 30.24 854 25.22 7.8 46.1 37 -6 21.1
13:40 1024 30.24 854 25.22 8 46.3 34 -6.9 19.5
13:45 1024 30.24 853 25.19 7.9 46.3 35 -6.6 20.2
13:50 1024 30.24 853 25.19 8.3 46.9 35 -6.2 20.8
13:55 1024 30.24 853 25.19 8.7 47.6 34 -6.3 20.7
14:00 1024 30.24 853 25.19 8.6 47.5 34 -6.5 20.3
14:05 1024 30.24 853 25.19 8.7 47.7 34 -6.2 20.8
14:10 1024 30.24 853 25.19 8.3 46.9 34 -6.7 19.9
14:15 1024 30.24 853 25.19 9.3 48.7 33 -6.2 20.9
14:20 1024 30.24 853 25.19 9.7 49.4 33 -5.9 21.4
14:25 1024 30.24 853 25.19 10 49.9 33 -5.6 21.9
14:30 1024 30.24 853 25.19 10 49.9 32 -5.9 21.3
14:35 1024 30.24 853 25.19 10.3 50.5 31 -6 21.2
14:40 1024 30.24 853 25.19 9.7 49.5 33 -5.8 21.6
14:45 1024 30.24 853 25.19 9.8 49.6 33 -5.9 21.5
14:50 1024 30.24 853 25.19 9.9 49.8 32 -5.8 21.5
14:55 1024 30.24 853 25.19 10.1 50.1 32 -5.7 21.7
15:00 1023 30.21 853 25.19 9.9 49.8 33 -5.6 21.9
15:05 1023 30.21 852 25.16 9.9 49.7 33 -5.6 22
15:10 1023 30.21 852 25.16 10.1 50.2 32 -6 21.3
15:15 1023 30.21 852 25.16 10.2 50.3 32 -5.8 21.6
15:20 1023 30.21 852 25.16 10.4 50.7 31 -5.9 21.4
15:25 1023 30.21 852 25.16 10.9 51.6 31 -5.4 22.2
15:30 1023 30.21 852 25.16 11.1 52.1 30 -5.6 21.9
15:35 1023 30.21 852 25.16 11.3 52.4 31 -5.2 22.7
15:40 1023 30.21 852 25.16 11.3 52.3 31 -5.2 22.7
15:45 1023 30.21 852 25.16 10.5 50.9 33 -5.2 22.6
15:50 1023 30.21 852 25.16 10.9 51.6 32 -5.2 22.7
15:55 1023 30.21 852 25.16 11.2 52.1 32 -5 23
16:00 1023 30.21 852 25.16 11.5 52.7 30 -5.2 22.6
16:05 1023 30.21 852 25.16 11 51.8 32 -4.9 23.1
16:10 1022 30.18 852 25.16 11 51.9 32 -5.1 22.9
16:15 1022 30.18 852 25.16 11.3 52.4 30 -5.6 21.9
16:20 1022 30.18 852 25.16 11.5 52.8 31 -5.1 22.8
16:25 1022 30.18 851 25.13 11.2 52.1 31 -5.3 22.5
16:30 1022 30.18 851 25.13 11.5 52.8 28 -6.2 20.8
16:35 1022 30.18 851 25.13 11.9 53.5 28 -6 21.2
16:40 1022 30.18 851 25.13 11.9 53.4 28 -5.8 21.5
16:45 1022 30.18 851 25.13 11.9 53.5 29 -5.5 22.1
16:50 1022 30.18 851 25.13 12 53.6 28 -5.7 21.7
16:55 1022 30.18 851 25.13 12 53.6 29 -5.5 22.1
17:00 1022 30.18 851 25.13 12.2 53.9 28 -5.6 21.9
17:05 1022 30.18 851 25.13 12.5 54.4 27 -6 21.2
17:10 1022 30.18 851 25.13 12.5 54.6 27 -6 21.2
17:15 1022 30.18 851 25.13 11.9 53.4 27 -6.5 20.4
17:20 1022 30.18 851 25.13 11.9 53.4 26 -7 19.4
17:25 1022 30.18 851 25.13 11.8 53.3 28 -6.1 21
17:30 1021 30.15 851 25.13 12.1 53.8 27 -6.1 21
17:35 1021 30.15 851 25.13 12.2 53.9 26 -6.7 19.9
17:40 1021 30.15 851 25.13 12.1 53.8 27 -6.3 20.7
17:45 1021 30.15 851 25.13 12.3 54.1 26 -6.4 20.5
17:50 1021 30.15 851 25.13 12.2 54 26 -6.6 20.1
17:55 1021 30.15 850 25.1 12 53.6 27 -6.4 20.4
18:00 1021 30.15 850 25.1 12.3 54.2 27 -6.3 20.6
18:05 1021 30.15 850 25.1 12.3 54.2 27 -6.1 21.1
18:10 1021 30.15 850 25.1 12.3 54.2 27 -6 21.1
18:15 1021 30.15 850 25.1 12.3 54.2 27 -6 21.2
18:20 1021 30.15 850 25.1 12.1 53.8 28 -5.6 21.9
18:25 1021 30.15 850 25.1 11.8 53.2 29 -5.4 22.2
18:30 1021 30.15 850 25.1 11.6 52.8 30 -5.2 22.6
18:35 1021 30.15 850 25.1 11.5 52.6 30 -5.3 22.5
18:40 1021 30.15 850 25.1 11.3 52.4 31 -5.4 22.3
18:45 1021 30.15 850 25.1 11.3 52.3 30 -5.5 22
18:50 1021 30.15 850 25.1 11.3 52.4 29 -5.8 21.5
18:55 1021 30.15 850 25.1 11.1 51.9 32 -5.2 22.7
19:00 1021 30.15 850 25.1 10.9 51.6 31 -5.4 22.2
19:05 1021 30.15 850 25.1 10.9 51.6 30 -5.8 21.6
19:10 1021 30.15 850 25.1 11.1 51.9 31 -5.4 22.3
19:15 1021 30.15 850 25.1 11.1 52 31 -5.5 22.2
19:20 1021 30.15 850 25.1 10.4 50.7 34 -4.6 23.7
19:25 1021 30.15 850 25.1 9.9 49.9 36 -4.5 23.9
19:30 1021 30.15 850 25.1 9.5 49.2 36 -4.6 23.7
19:35 1021 30.15 850 25.1 9.3 48.8 39 -4 24.7
19:40 1020 30.12 850 25.1 9 48.2 40 -3.9 24.9
19:45 1020 30.12 850 25.1 8.7 47.7 40 -4.1 24.5
19:50 1020 30.12 850 25.1 8.7 47.6 40 -4.2 24.5
19:55 1020 30.12 850 25.1 8.4 47.2 40 -4.3 24.3
20:00 1020 30.12 849 25.07 8.1 46.6 42 -4.1 24.7
20:05 1020 30.12 849 25.07 7.7 45.9 43 -3.9 24.9
20:10 1020 30.12 849 25.07 7.5 45.4 44 -3.8 25.1
20:15 1020 30.12 849 25.07 7.3 45.2 45 -3.9 25
20:20 1020 30.12 849 25.07 7.1 44.8 45 -3.9 24.9
20:25 1020 30.12 849 25.07 6.9 44.4 46 -4 24.8
20:30 1020 30.12 849 25.07 6.5 43.7 46 -4.2 24.4
20:35 1020 30.12 849 25.07 6.4 43.5 47 -4.1 24.7
20:40 1020 30.12 849 25.07 6.1 43 47 -4.3 24.3
20:45 1020 30.12 849 25.07 6.1 43 47 -4.3 24.2
20:50 1020 30.12 849 25.07 6.1 43 47 -4.3 24.2
20:55 1020 30.12 849 25.07 6.2 43.1 46 -4.6 23.7
21:00 1020 30.12 849 25.07 6.1 43 47 -4.4 24.1
21:05 1020 30.12 849 25.07 5.9 42.7 47 -4.6 23.8
21:10 1020 30.12 849 25.07 5.6 42.1 47 -4.7 23.6
21:15 1020 30.12 849 25.07 5.2 41.3 48 -5.1 22.9
21:20 1020 30.12 849 25.07 4.9 40.7 48 -5.2 22.6
21:25 1020 30.12 849 25.07 4.7 40.5 47 -5.6 21.9
21:30 1020 30.12 849 25.07 4.9 40.8 47 -5.6 21.9
21:35 1020 30.12 849 25.07 4.9 40.8 44 -6.3 20.7
21:40 1020 30.12 849 25.07 5 41 43 -6.5 20.4
21:45 1020 30.12 849 25.07 5 41 46 -5.7 21.7
21:50 1020 30.12 849 25.07 4.8 40.6 43 -6.9 19.6
21:55 1020 30.12 849 25.07 5.3 41.5 42 -6.7 19.9
22:00 1020 30.12 849 25.07 5.1 41.2 42 -6.7 20
22:05 1020 30.12 849 25.07 5.2 41.3 40 -7.2 19
22:10 1020 30.12 849 25.07 5.4 41.8 41 -6.8 19.8
22:15 1020 30.12 849 25.07 4.8 40.7 45 -6 21.2
22:20 1020 30.12 849 25.07 4.1 39.4 45 -6.7 19.9
22:25 1020 30.12 849 25.07 4.1 39.4 45 -6.7 20
22:30 1020 30.12 849 25.07 4.1 39.4 44 -6.9 19.5
22:35 1020 30.12 849 25.07 4.2 39.5 43 -7.3 18.9
22:40 1020 30.12 849 25.07 4.6 40.2 39 -8.4 16.9
22:45 1020 30.12 849 25.07 5 41 41 -7.2 19
22:50 1020 30.12 849 25.07 4.6 40.4 43 -6.9 19.6
22:55 1020 30.12 849 25.07 4.5 40 40 -7.8 17.9
23:00 1020 30.12 849 25.07 4.5 40 39 -8.4 16.9
23:05 1020 30.12 849 25.07 4.8 40.7 39 -8.1 17.5
23:10 1020 30.12 849 25.07 4.6 40.4 41 -7.4 18.6
23:15 1020 30.12 849 25.07 4 39.2 42 -7.9 17.8
23:20 1020 30.12 849 25.07 4.1 39.4 40 -8.3 17.1
23:25 1020 30.12 849 25.07 4.1 39.4 40 -8.3 17.1
23:30 1020 30.12 849 25.07 3.9 39.1 42 -7.7 18.1
23:35 1020 30.12 849 25.07 3.3 38 45 -7.5 18.5
23:40 1020 30.12 849 25.07 3.1 37.6 45 -7.7 18.1
23:45 1020 30.12 849 25.07 3.1 37.5 46 -7.6 18.3
23:50 1020 30.12 849 25.07 2.9 37.2 47 -7.4 18.7
23:55 1020 30.12 849 25.07 2.8 37.1 45 -8 17.6
24:00 1019 30.09 849 25.07 3.3 37.9 45 -7.7 18.2